createdAt,value
2023-04-25T00:00:16.668Z,6.25
2023-04-25T00:02:43.771Z,6.80
2023-04-25T00:05:11.440Z,9.55
2023-04-25T00:07:38.273Z,8.00
2023-04-25T00:10:06.083Z,7.07
2023-04-25T00:12:34.584Z,6.97
2023-04-25T00:15:01.519Z,8.25
2023-04-25T00:17:28.477Z,8.73
2023-04-25T00:19:55.650Z,14.23
2023-04-25T00:22:22.726Z,9.93
2023-04-25T00:24:50.034Z,9.05
2023-04-25T00:27:16.842Z,7.60
2023-04-25T00:29:43.669Z,7.50
2023-04-25T00:32:11.002Z,8.15
2023-04-25T00:34:37.791Z,10.15
2023-04-25T00:37:04.673Z,9.65
2023-04-25T00:39:31.678Z,7.05
2023-04-25T00:41:59.218Z,7.90
2023-04-25T00:44:27.921Z,15.85
2023-04-25T00:46:55.530Z,11.40
2023-04-25T00:49:22.684Z,10.57
2023-04-25T00:51:49.776Z,10.70
2023-04-25T00:54:17.491Z,8.80
2023-04-25T00:56:48.175Z,7.65
2023-04-25T00:59:17.000Z,8.43
2023-04-25T01:01:45.319Z,10.20
2023-04-25T01:04:12.637Z,9.52
2023-04-25T01:06:40.022Z,9.02
2023-04-25T01:09:07.135Z,6.68
2023-04-25T01:11:33.949Z,8.55
2023-04-25T01:14:01.692Z,13.73
2023-04-25T01:16:29.014Z,8.43
2023-04-25T01:18:57.164Z,9.95
2023-04-25T01:21:24.420Z,9.55
2023-04-25T01:23:51.727Z,11.38
2023-04-25T01:26:18.851Z,12.93
2023-04-25T01:28:46.401Z,11.43
2023-04-25T01:31:14.349Z,7.13
2023-04-25T01:33:41.435Z,9.32
2023-04-25T01:36:08.605Z,8.80
2023-04-25T01:38:36.619Z,9.70
2023-04-25T01:41:04.184Z,8.55
2023-04-25T01:43:31.106Z,10.65
2023-04-25T01:45:58.590Z,10.93
2023-04-25T01:48:26.092Z,11.73
2023-04-25T01:50:53.412Z,12.32
2023-04-25T01:53:20.293Z,11.27
2023-04-25T01:55:49.751Z,12.52
2023-04-25T01:58:20.981Z,11.67
2023-04-25T02:01:06.501Z,10.38
2023-04-25T02:03:53.592Z,11.93
2023-04-25T02:06:29.346Z,8.68
2023-04-25T02:08:58.079Z,15.23
2023-04-25T02:11:24.952Z,11.40
2023-04-25T02:14:14.608Z,9.80
2023-04-25T02:16:54.025Z,10.20
2023-04-25T02:19:20.830Z,9.73
2023-04-25T02:21:47.807Z,9.77
2023-04-25T02:24:14.746Z,11.68
2023-04-25T02:26:41.527Z,9.02
2023-04-25T02:29:10.546Z,10.35
2023-04-25T02:31:37.509Z,11.38
2023-04-25T02:34:04.333Z,13.27
2023-04-25T02:36:33.304Z,12.18
2023-04-25T02:39:00.138Z,12.30
2023-04-25T02:41:27.798Z,9.80
2023-04-25T02:43:56.268Z,12.55
2023-04-25T02:46:32.200Z,15.07
2023-04-25T02:49:05.179Z,14.52
2023-04-25T02:51:32.196Z,13.35
2023-04-25T02:53:59.366Z,16.63
2023-04-25T02:56:27.393Z,13.20
2023-04-25T02:58:54.781Z,11.50
2023-04-25T03:01:22.137Z,10.35
2023-04-25T03:03:49.532Z,12.50
2023-04-25T03:06:17.291Z,9.35
2023-04-25T03:08:44.525Z,12.48
2023-04-25T03:11:11.909Z,14.10
2023-04-25T03:13:38.946Z,10.63
2023-04-25T03:16:06.750Z,9.13
2023-04-25T03:18:33.706Z,10.07
2023-04-25T03:21:00.851Z,11.65
2023-04-25T03:23:27.880Z,10.98
2023-04-25T03:25:55.475Z,9.35
2023-04-25T03:28:23.522Z,10.23
2023-04-25T03:30:51.485Z,11.95
2023-04-25T03:33:18.370Z,12.77
2023-04-25T03:35:45.435Z,11.82
2023-04-25T03:38:12.934Z,13.18
2023-04-25T03:40:41.231Z,8.98
2023-04-25T03:43:13.899Z,8.95
2023-04-25T03:45:48.114Z,10.05
2023-04-25T03:48:20.630Z,11.55
2023-04-25T03:50:48.533Z,10.60
2023-04-25T03:53:15.434Z,8.73
2023-04-25T03:56:10.581Z,9.57
2023-04-25T03:58:38.885Z,11.38
2023-04-25T04:01:09.027Z,11.55
2023-04-25T04:03:38.991Z,9.98
2023-04-25T04:06:08.056Z,12.85
2023-04-25T04:08:39.372Z,11.67
2023-04-25T04:11:06.426Z,14.82
2023-04-25T04:13:34.129Z,14.18
2023-04-25T04:16:02.817Z,15.00
2023-04-25T04:18:29.865Z,15.23
2023-04-25T04:20:59.325Z,16.00
2023-04-25T04:23:29.289Z,12.15
2023-04-25T04:25:58.283Z,15.02
2023-04-25T04:28:46.992Z,11.77
2023-04-25T04:33:59.649Z,13.52
2023-04-25T04:36:27.569Z,17.17
2023-04-25T04:38:55.145Z,15.48
2023-04-25T04:41:33.459Z,15.30
2023-04-25T04:44:23.879Z,15.10
2023-04-25T04:47:08.994Z,11.95
2023-04-25T04:50:01.574Z,14.20
2023-04-25T04:52:49.934Z,14.35
2023-04-25T04:55:39.087Z,12.48
2023-04-25T04:58:13.087Z,9.32
2023-04-25T05:00:51.520Z,9.88
2023-04-25T05:03:41.628Z,10.18
2023-04-25T05:06:24.289Z,3.13
2023-04-25T05:09:16.243Z,8.00
2023-04-25T05:12:18.249Z,18.30
2023-04-25T05:15:03.586Z,11.13
2023-04-25T05:17:30.708Z,8.18
2023-04-25T05:20:10.495Z,10.10
2023-04-25T05:22:56.304Z,6.78
2023-04-25T05:25:37.361Z,9.13
2023-04-25T05:28:14.534Z,5.35
2023-04-25T05:30:59.196Z,8.27
2023-04-25T05:33:31.837Z,10.95
2023-04-25T05:36:00.023Z,8.88
2023-04-25T05:38:27.518Z,9.15
2023-04-25T05:41:29.069Z,5.55
2023-04-25T05:44:00.748Z,3.42
2023-04-25T05:46:42.426Z,4.38
2023-04-25T05:49:26.462Z,8.00
2023-04-25T05:52:01.572Z,2.65
2023-04-25T05:54:45.864Z,7.97
2023-04-25T05:57:26.630Z,5.32
2023-04-25T05:59:55.840Z,3.22
2023-04-25T06:02:28.541Z,9.90
2023-04-25T06:04:58.722Z,3.42
2023-04-25T06:07:26.200Z,4.28
2023-04-25T06:09:53.065Z,7.82
2023-04-25T06:12:20.252Z,5.50
2023-04-25T06:14:49.903Z,6.90
2023-04-25T06:17:16.731Z,3.85
2023-04-25T06:19:43.689Z,6.20
2023-04-25T06:22:11.296Z,4.22
2023-04-25T06:24:40.830Z,6.80
2023-04-25T06:27:08.147Z,6.38
2023-04-25T06:29:35.265Z,5.50
2023-04-25T06:32:07.862Z,5.25
2023-04-25T06:34:40.143Z,2.03
2023-04-25T06:37:14.919Z,6.22
2023-04-25T06:39:51.537Z,9.43
2023-04-25T06:42:18.833Z,4.38
2023-04-25T06:44:52.512Z,4.32
2023-04-25T06:47:20.760Z,6.47
2023-04-25T06:49:49.046Z,4.03
2023-04-25T06:52:15.940Z,4.03
2023-04-25T06:54:42.848Z,5.95
2023-04-25T06:57:27.901Z,4.55
2023-04-25T06:59:57.358Z,3.20
2023-04-25T07:02:24.592Z,6.65
2023-04-25T07:04:55.390Z,3.97
2023-04-25T07:07:22.673Z,4.05
2023-04-25T07:09:55.977Z,2.28
2023-04-25T07:12:23.100Z,6.47
2023-04-25T07:14:50.046Z,2.92
2023-04-25T07:17:17.007Z,5.18
2023-04-25T07:19:44.666Z,3.92
2023-04-25T07:22:11.807Z,6.22
2023-04-25T07:24:41.365Z,6.38
2023-04-25T07:27:10.529Z,1.83
2023-04-25T07:29:48.984Z,4.00
2023-04-25T07:32:16.273Z,5.97
2023-04-25T07:34:46.628Z,4.45
2023-04-25T07:37:16.159Z,5.78
2023-04-25T07:39:58.342Z,4.47
2023-04-25T07:42:25.349Z,4.65
2023-04-25T07:44:52.869Z,5.80
2023-04-25T07:47:22.576Z,4.88
2023-04-25T07:49:49.580Z,5.10
2023-04-25T07:52:17.649Z,3.60
2023-04-25T07:54:50.277Z,6.25
2023-04-25T07:57:22.712Z,3.65
2023-04-25T07:59:50.718Z,3.63
2023-04-25T08:02:20.556Z,4.97
2023-04-25T08:04:47.846Z,3.58
2023-04-25T08:07:17.625Z,3.58
2023-04-25T08:09:55.514Z,3.10
2023-04-25T08:12:29.432Z,5.90
2023-04-25T08:14:59.629Z,3.60
2023-04-25T08:17:31.745Z,4.30
2023-04-25T08:19:59.231Z,4.32
2023-04-25T08:22:31.858Z,3.60
2023-04-25T08:25:16.009Z,5.57
2023-04-25T08:27:43.969Z,2.10
2023-04-25T08:30:11.720Z,5.85
2023-04-25T08:32:40.354Z,5.20
2023-04-25T08:35:21.666Z,3.63
2023-04-25T08:37:52.031Z,3.13
2023-04-25T08:40:27.225Z,3.05
2023-04-25T08:43:19.052Z,5.03
2023-04-25T08:45:46.932Z,6.07
2023-04-25T08:48:28.850Z,3.15
2023-04-25T08:50:58.026Z,4.30
2023-04-25T08:53:33.897Z,2.42
2023-04-25T08:56:10.448Z,3.90
2023-04-25T08:58:39.681Z,5.47
2023-04-25T09:01:07.328Z,1.83
2023-04-25T09:03:42.349Z,1.77
2023-04-25T09:06:12.077Z,5.65
2023-04-25T09:08:41.855Z,1.58
2023-04-25T09:11:11.464Z,5.60
2023-04-25T09:13:38.685Z,4.60
2023-04-25T09:16:16.150Z,3.50
2023-04-25T09:19:07.244Z,4.65
2023-04-25T09:21:37.776Z,3.97
2023-04-25T09:24:07.633Z,5.95
2023-04-25T09:26:35.581Z,3.60
2023-04-25T09:29:10.710Z,4.85
2023-04-25T09:31:41.395Z,6.47
2023-04-25T09:34:16.650Z,1.50
2023-04-25T09:36:48.019Z,3.47
2023-04-25T09:39:39.356Z,2.95
2023-04-25T09:42:13.280Z,3.45
2023-04-25T09:44:47.028Z,4.85
2023-04-25T09:47:18.989Z,3.15
2023-04-25T09:49:49.246Z,2.28
2023-04-25T09:52:19.313Z,6.57
2023-04-25T09:54:56.346Z,4.50
2023-04-25T09:57:31.419Z,4.15
2023-04-25T10:00:02.206Z,6.05
2023-04-25T10:02:44.209Z,4.82
2023-04-25T10:05:18.888Z,3.85
2023-04-25T10:07:46.086Z,3.92
2023-04-25T10:10:17.649Z,3.00
2023-04-25T10:12:45.739Z,4.72
2023-04-25T10:15:14.620Z,7.03
2023-04-25T10:17:41.796Z,5.15
2023-04-25T10:20:12.062Z,5.88
2023-04-25T10:22:42.783Z,7.75
2023-04-25T10:25:10.612Z,3.35
2023-04-25T10:27:38.262Z,5.75
2023-04-25T10:30:12.161Z,3.45
2023-04-25T10:32:39.205Z,5.32
2023-04-25T10:35:14.356Z,5.40
2023-04-25T10:38:03.948Z,6.90
2023-04-25T10:40:31.434Z,3.10
2023-04-25T10:43:34.599Z,5.53
2023-04-25T10:46:01.801Z,5.57
2023-04-25T10:48:32.958Z,5.80
2023-04-25T10:51:10.487Z,4.35
2023-04-25T10:53:37.976Z,4.93
2023-04-25T10:57:07.118Z,2.65
2023-04-25T10:59:34.412Z,6.55
2023-04-25T11:02:13.399Z,6.95
2023-04-25T11:04:42.647Z,4.50
2023-04-25T11:07:38.848Z,4.20
2023-04-25T11:10:07.626Z,6.25
2023-04-25T11:12:34.767Z,6.55
2023-04-25T11:15:08.620Z,3.55
2023-04-25T11:17:36.398Z,4.60
2023-04-25T11:20:08.400Z,3.10
2023-04-25T11:22:35.923Z,3.92
2023-04-25T11:25:07.574Z,2.63
2023-04-25T11:30:18.119Z,4.30
2023-04-25T11:32:45.065Z,3.42
2023-04-25T11:35:12.465Z,3.50
2023-04-25T11:37:43.627Z,7.18
2023-04-25T11:40:12.651Z,4.60
2023-04-25T11:42:44.316Z,8.73
2023-04-25T11:45:12.045Z,8.25
2023-04-25T11:47:38.971Z,3.47
2023-04-25T11:50:08.716Z,4.97
2023-04-25T11:52:46.162Z,2.13
2023-04-25T11:55:21.650Z,3.00
2023-04-25T11:57:51.269Z,2.22
2023-04-25T12:00:21.130Z,3.28
2023-04-25T12:02:52.926Z,3.33
2023-04-25T12:07:53.585Z,1.10
2023-04-25T12:10:20.839Z,6.82
2023-04-25T12:12:49.527Z,3.40
2023-04-25T12:15:25.605Z,2.35
2023-04-25T12:17:55.066Z,3.88
2023-04-25T12:20:26.149Z,2.83
2023-04-25T12:22:53.999Z,1.48
2023-04-25T12:25:44.497Z,4.43
2023-04-25T12:28:17.094Z,5.30
2023-04-25T12:30:58.769Z,4.55
2023-04-25T12:33:27.940Z,3.80
2023-04-25T12:35:55.882Z,4.10
2023-04-25T12:38:35.020Z,4.50
2023-04-25T12:41:02.145Z,1.48
2023-04-25T12:43:29.114Z,7.28
2023-04-25T12:45:56.989Z,2.40
2023-04-25T12:48:24.441Z,4.32
2023-04-25T12:51:16.926Z,4.72
2023-04-25T12:53:43.725Z,1.70
2023-04-25T12:56:10.676Z,2.70
2023-04-25T12:58:37.712Z,4.13
2023-04-25T13:01:04.894Z,6.95
2023-04-25T13:03:31.997Z,6.20
2023-04-25T13:05:58.965Z,3.60
2023-04-25T13:08:26.076Z,1.00
2023-04-25T13:10:56.225Z,6.05
2023-04-25T13:13:23.629Z,2.03
2023-04-25T13:15:50.748Z,3.50
2023-04-25T13:18:17.771Z,5.15
2023-04-25T13:20:44.654Z,4.53
2023-04-25T13:23:11.558Z,12.18
2023-04-25T13:25:38.418Z,3.90
2023-04-25T13:28:05.793Z,1.85
2023-04-25T13:30:32.610Z,4.32
2023-04-25T13:33:04.410Z,5.65
2023-04-25T13:35:32.220Z,3.58
2023-04-25T13:37:58.995Z,2.83
2023-04-25T13:40:26.144Z,6.10
2023-04-25T13:43:42.650Z,2.80
2023-04-25T13:46:20.639Z,3.38
2023-04-25T13:49:03.026Z,2.53
2023-04-25T13:51:37.059Z,4.95
2023-04-25T13:54:04.164Z,5.00
2023-04-25T13:56:31.456Z,8.68
2023-04-25T13:58:58.562Z,4.95
2023-04-25T14:01:25.432Z,4.00
2023-04-25T14:03:52.465Z,3.83
2023-04-25T14:06:23.812Z,6.25
2023-04-25T14:08:51.758Z,3.85
2023-04-25T14:11:19.412Z,4.35
2023-04-25T14:13:46.992Z,4.00
2023-04-25T14:16:13.873Z,7.93
2023-04-25T14:18:41.001Z,5.40
2023-04-25T14:21:08.073Z,3.25
2023-04-25T14:23:34.768Z,6.63
2023-04-25T14:26:01.712Z,6.65
2023-04-25T14:28:28.461Z,6.75
2023-04-25T14:30:55.354Z,2.95
2023-04-25T14:33:22.351Z,2.22
2023-04-25T14:35:49.251Z,5.28
2023-04-25T14:38:16.212Z,3.25
2023-04-25T14:40:43.833Z,4.88
2023-04-25T14:43:10.646Z,3.45
2023-04-25T14:45:37.389Z,7.50
2023-04-25T14:48:04.543Z,5.40
2023-04-25T14:50:31.840Z,6.53
2023-04-25T14:53:02.170Z,6.70
2023-04-25T14:55:29.344Z,2.78
2023-04-25T14:57:57.565Z,4.03
2023-04-25T15:00:26.378Z,2.55
2023-04-25T15:03:04.391Z,3.50
2023-04-25T15:05:31.846Z,8.93
2023-04-25T15:07:59.454Z,3.78
2023-04-25T15:10:26.539Z,2.60
2023-04-25T15:12:54.646Z,3.67
2023-04-25T15:15:26.620Z,4.65
2023-04-25T15:17:59.115Z,5.57
2023-04-25T15:20:26.900Z,3.70
2023-04-25T15:22:53.853Z,4.38
2023-04-25T15:25:20.576Z,10.43
2023-04-25T15:27:49.492Z,7.32
2023-04-25T15:30:17.800Z,7.82
2023-04-25T15:32:46.081Z,4.40
2023-04-25T15:35:13.338Z,5.05
2023-04-25T15:37:41.519Z,4.03
2023-04-25T15:40:15.050Z,7.35
2023-04-25T15:42:44.438Z,1.67
2023-04-25T15:45:12.288Z,3.25
2023-04-25T15:47:39.267Z,4.22
2023-04-25T15:50:08.634Z,5.63
2023-04-25T15:52:36.793Z,10.02
2023-04-25T15:55:08.901Z,4.63
2023-04-25T15:57:51.544Z,4.15
2023-04-25T16:00:50.302Z,4.38
2023-04-25T16:03:17.258Z,4.22
2023-04-25T16:05:44.156Z,5.22
2023-04-25T16:08:10.886Z,4.15
2023-04-25T16:10:38.509Z,4.03
2023-04-25T16:13:06.489Z,1.98
2023-04-25T16:15:35.321Z,5.13
2023-04-25T16:18:03.189Z,10.25
2023-04-25T16:20:31.404Z,9.45
2023-04-25T16:22:58.802Z,2.75
2023-04-25T16:25:25.542Z,4.45
2023-04-25T16:27:52.596Z,6.20
2023-04-25T16:30:19.467Z,6.78
2023-04-25T16:32:46.241Z,5.63
2023-04-25T16:35:12.943Z,4.03
2023-04-25T16:37:39.717Z,4.05
2023-04-25T16:40:10.088Z,5.10
2023-04-25T16:42:37.067Z,4.10
2023-04-25T16:45:05.283Z,4.68
2023-04-25T16:47:32.805Z,7.45
2023-04-25T16:50:01.638Z,9.35
2023-04-25T16:52:28.490Z,5.47
2023-04-25T16:54:55.258Z,5.03
2023-04-25T16:57:22.107Z,11.30
2023-04-25T16:59:48.760Z,15.13
2023-04-25T17:02:16.053Z,1.17
2023-04-25T17:04:42.947Z,4.65
2023-04-25T17:07:09.753Z,7.40
2023-04-25T17:09:36.808Z,6.15
2023-04-25T17:12:04.476Z,5.18
2023-04-25T17:14:33.217Z,6.25
2023-04-25T17:17:00.309Z,3.97
2023-04-25T17:19:28.270Z,5.82
2023-04-25T17:21:55.953Z,7.40
2023-04-25T17:24:22.678Z,4.68
2023-04-25T17:26:49.496Z,9.82
2023-04-25T17:29:16.346Z,3.75
2023-04-25T17:31:44.322Z,9.85
2023-04-25T17:34:12.303Z,1.98
2023-04-25T17:36:39.018Z,4.40
2023-04-25T17:39:07.454Z,3.47
2023-04-25T17:41:34.278Z,7.88
2023-04-25T17:44:01.411Z,1.48
2023-04-25T17:46:29.578Z,4.72
2023-04-25T17:48:59.346Z,6.97
2023-04-25T17:51:26.695Z,2.65
2023-04-25T17:53:53.465Z,1.95
2023-04-25T17:56:26.962Z,2.08
2023-04-25T17:58:54.525Z,1.17
2023-04-25T18:01:21.766Z,1.52
2023-04-25T18:03:50.316Z,3.47
2023-04-25T18:06:18.141Z,12.75
2023-04-25T18:08:45.418Z,4.10
2023-04-25T18:11:12.424Z,4.05
2023-04-25T18:13:39.831Z,6.63
2023-04-25T18:16:07.643Z,8.10
2023-04-25T18:18:36.358Z,3.95
2023-04-25T18:21:05.759Z,9.27
2023-04-25T18:23:34.297Z,10.05
2023-04-25T18:26:02.895Z,6.97
2023-04-25T18:28:29.796Z,3.58
2023-04-25T18:30:57.133Z,6.32
2023-04-25T18:33:24.068Z,8.20
2023-04-25T18:35:58.205Z,4.05
2023-04-25T18:42:56.038Z,3.70
2023-04-25T18:45:22.816Z,5.00
2023-04-25T18:47:49.651Z,10.30
2023-04-25T18:50:20.290Z,4.53
2023-04-25T18:52:47.101Z,5.15
2023-04-25T18:55:15.013Z,5.20
2023-04-25T18:57:42.218Z,5.78
2023-04-25T19:00:09.573Z,3.42
2023-04-25T19:02:39.425Z,3.85
2023-04-25T19:05:06.990Z,2.38
2023-04-25T19:07:33.875Z,3.13
2023-04-25T19:10:00.681Z,5.43
2023-04-25T19:12:27.383Z,4.15
2023-04-25T19:14:54.162Z,0.93
2023-04-25T19:17:20.915Z,3.92
2023-04-25T19:19:47.837Z,2.55
2023-04-25T19:22:14.789Z,1.25
2023-04-25T19:24:41.591Z,5.35
2023-04-25T19:27:08.610Z,3.30
2023-04-25T19:29:36.482Z,4.03
2023-04-25T19:32:03.559Z,3.65
2023-04-25T19:34:30.466Z,3.05
2023-04-25T19:36:57.618Z,7.32
2023-04-25T19:39:24.364Z,1.95
2023-04-25T19:41:51.249Z,3.08
2023-04-25T19:44:18.039Z,3.83
2023-04-25T19:46:46.889Z,4.60
2023-04-25T19:49:13.850Z,3.45
2023-04-25T19:51:42.133Z,1.08
2023-04-25T19:54:08.946Z,3.72
2023-04-25T19:56:35.860Z,3.35
2023-04-25T19:59:02.947Z,4.63
2023-04-25T20:01:30.472Z,1.17
2023-04-25T20:03:57.449Z,5.20
2023-04-25T20:06:24.314Z,2.92
2023-04-25T20:08:53.447Z,1.45
2023-04-25T20:11:20.338Z,6.35
2023-04-25T20:13:47.512Z,5.22
2023-04-25T20:16:19.892Z,1.50
2023-04-25T20:18:50.543Z,3.97
2023-04-25T20:21:17.715Z,3.55
2023-04-25T20:23:44.859Z,2.03
2023-04-25T20:26:15.087Z,2.65
2023-04-25T20:28:42.000Z,2.55
2023-04-25T20:31:10.799Z,2.00
2023-04-25T20:33:38.828Z,0.80
2023-04-25T20:36:05.847Z,2.78
2023-04-25T20:38:32.729Z,2.10
2023-04-25T20:40:59.665Z,3.33
2023-04-25T20:43:27.057Z,4.00
2023-04-25T20:45:55.127Z,2.42
2023-04-25T20:48:24.352Z,5.50
2023-04-25T20:50:51.551Z,1.70
2023-04-25T20:53:18.509Z,4.07
2023-04-25T20:55:46.561Z,2.83
2023-04-25T20:58:13.289Z,0.80
2023-04-25T21:00:40.003Z,7.43
2023-04-25T21:03:07.871Z,2.03
2023-04-25T21:05:34.958Z,4.45
2023-04-25T21:08:01.740Z,0.90
2023-04-25T21:10:28.626Z,1.25
2023-04-25T21:12:56.665Z,1.50
2023-04-25T21:15:24.676Z,2.67
2023-04-25T21:17:52.941Z,4.32
2023-04-25T21:20:22.069Z,1.65
2023-04-25T21:22:53.454Z,2.05
2023-04-25T21:25:25.571Z,2.45
2023-04-25T21:27:53.445Z,0.68
2023-04-25T21:30:23.733Z,1.33
2023-04-25T21:32:52.040Z,1.58
2023-04-25T21:35:20.515Z,4.47
2023-04-25T21:37:47.419Z,0.80
2023-04-25T21:40:14.727Z,2.75
2023-04-25T21:42:42.566Z,2.25
2023-04-25T21:45:10.239Z,3.75
2023-04-25T21:47:37.341Z,0.52
2023-04-25T21:50:04.736Z,2.33
2023-04-25T21:52:32.211Z,1.33
2023-04-25T21:54:59.094Z,1.33
2023-04-25T21:57:26.541Z,3.28
2023-04-25T21:59:53.614Z,1.65
2023-04-25T22:02:20.513Z,4.00
2023-04-25T22:04:47.834Z,2.80
2023-04-25T22:07:15.292Z,1.48
2023-04-25T22:09:53.886Z,4.32
2023-04-25T22:12:22.727Z,1.88
2023-04-25T22:14:50.256Z,5.43
2023-04-25T22:17:17.804Z,5.28
2023-04-25T22:19:45.370Z,1.38
2023-04-25T22:22:12.336Z,1.02
2023-04-25T22:24:39.357Z,2.63
2023-04-25T22:27:06.802Z,1.80
2023-04-25T22:29:34.348Z,1.45
2023-04-25T22:32:01.780Z,2.63
2023-04-25T22:34:28.956Z,2.97
2023-04-25T22:36:55.721Z,2.47
2023-04-25T22:39:23.239Z,2.58
2023-04-25T22:41:49.904Z,0.60
2023-04-25T22:44:16.601Z,6.78
2023-04-25T22:46:43.506Z,3.28
2023-04-25T22:49:10.597Z,3.15
2023-04-25T22:51:37.844Z,2.15
2023-04-25T22:54:05.521Z,4.50
2023-04-25T22:56:32.855Z,0.88
2023-04-25T22:58:59.667Z,2.28
2023-04-25T23:01:28.094Z,2.80
2023-04-25T23:03:55.243Z,3.00
2023-04-25T23:06:22.959Z,3.40
2023-04-25T23:08:50.420Z,2.25
2023-04-25T23:11:17.191Z,1.80
2023-04-25T23:13:44.034Z,1.65
2023-04-25T23:16:11.155Z,1.15
2023-04-25T23:18:39.564Z,2.47
2023-04-25T23:21:11.411Z,6.88
2023-04-25T23:23:38.807Z,3.45
2023-04-25T23:26:09.379Z,1.63
2023-04-25T23:28:39.854Z,0.47
2023-04-25T23:31:09.934Z,2.85
2023-04-25T23:33:36.760Z,1.45
2023-04-25T23:36:03.853Z,3.63
2023-04-25T23:38:31.001Z,1.92
2023-04-25T23:40:57.920Z,4.60
2023-04-25T23:43:24.771Z,2.53
2023-04-25T23:45:51.567Z,4.13
2023-04-25T23:48:18.257Z,2.70
2023-04-25T23:50:44.912Z,3.88
2023-04-25T23:53:11.855Z,1.92
2023-04-25T23:55:38.600Z,1.65
2023-04-25T23:58:05.392Z,5.20
